Cambridge, NY (12816)

2:33 AM EDT on September 22, 2014 (GMT -0400)
KNYGREEN17 | Change Station
CLOSE
Current Station
Personal Weather Station
Location: Greenwich, NY
Elevation: 340 ft
Nearby Weather Stations

Elev 340 ft 43.10 °N, 73.52 °W | Updated 3 minutes ago

Overcast
Overcast
57.7 °F
Feels Like 57.7 °F
N
0.0
Wind Variable Wind from North
Gusts 0.0 mph

Today
High -- | Low -- °F
--% Chance of Precip.
Yesterday
High -- | Low -- °F
Precip. -- in
6:40 AM 6:50 PM
Waning Crescent, 4% visible
Pressure 29.61 in
Visibility 10.0 miles
Clouds Few 3000 ft
Scattered Clouds 8000 ft
Overcast 11000 ft
Dew Point 57 °F
Humidity 96%
Rainfall 0.01 in
Snow Depth Not available.
UV 0 out of 12
Pollen 1.50 out of 12
Ozone Good
PM2.5 Good
Flu Activity Not available.
METAR KDDH 220554Z AUTO 21003KT 10SM -RA FEW030 SCT080 OVC110 14/13 A2962 RMK AO2 SLP027 P0001 60003 T01390128 10222 20139 56004

More Conditions Fewer Conditions

Pressure 29.61 in
Visibility 10.0 miles
Clouds Few 3000 ft
Scattered Clouds 8000 ft
Overcast 11000 ft
Dew Point 57 °F
Humidity 96%
Rainfall 0.01 in
Snow Depth Not available.
UV 0 out of 12
Pollen 1.50 out of 12
Ozone Good
PM2.5 Good
Flu Activity Not available.
METAR KDDH 220554Z AUTO 21003KT 10SM -RA FEW030 SCT080 OVC110 14/13 A2962 RMK AO2 SLP027 P0001 60003 T01390128 10222 20139 56004

More Conditions Fewer Conditions

10-Day Weather Forecast

Almanac

Astronomy

Sep. 22, 2014 Rise Set
Actual Time 6:40 AM EDT 6:50 PM EDT
Civil Twilight 6:12 AM EDT 7:19 PM EDT
Nautical Twilight 5:39 AM EDT 7:52 PM EDT
Astronomical Twilight 5:05 AM EDT 8:26 PM EDT
Moon 5:05 AM EDT 5:58 PM EDT
Length of Visible Light 13h 06m
Length of Day
12h 10m
Tomorrow will be 2m 54s shorter.
Waning Crescent, 4% of the Moon is Illuminated
Today
Waning Crescent
Sep 24
New
Oct 1
First Quarter
Oct 8
Full
Oct 15
Last Quarter

Today's Extremes

State Highs State Lows

Community

WunderPhotos

Upload Photos

1,755,392 photos uploaded!

Nearby

Air Quality

  Air Quality AQ Index Pollutant
Yesterday Good
OZONE
Yesterday Good
PM2.5
Current Good
OZONE
Current Good
PM2.5
Monday Good
OZONE
Monday Good
PM2.5

Snow Depth

Station Depth Elevation
No new snow has been reported.

Earthquake Activity

City Distance Mag. Time & Date
No recent earthquake activity has been reported nearby.
Minimum magnitude displayed is 2.5.

Coastal Water Temperatures

Place Temperature
No Stations Reporting

Nearby Weather Stations